createdAt,value
2022-11-12T11:40:56.717Z,241.88
2022-11-12T11:41:56.509Z,236.25
2022-11-12T11:42:56.419Z,241.88
2022-11-12T11:43:56.375Z,230.63
2022-11-12T11:44:56.237Z,225.00
2022-11-12T11:45:56.310Z,219.38
2022-11-12T11:46:56.070Z,208.13
2022-11-12T11:48:02.512Z,213.75
2022-11-12T11:48:55.884Z,225.00
2022-11-12T11:49:55.803Z,230.63
2022-11-12T11:50:55.729Z,213.75
2022-11-12T11:51:55.611Z,213.75
2022-11-12T11:52:55.526Z,213.75
2022-11-12T11:53:55.445Z,225.00
2022-11-12T11:54:55.361Z,230.63
2022-11-12T11:55:55.278Z,236.25
2022-11-12T11:56:55.310Z,236.25
2022-11-12T11:57:55.115Z,230.63
2022-11-12T11:58:55.029Z,225.00
2022-11-12T11:59:54.950Z,225.00
2022-11-12T12:00:54.867Z,219.38
2022-11-12T12:01:54.790Z,208.13
2022-11-12T12:02:54.710Z,213.75
2022-11-12T12:03:54.673Z,225.00
2022-11-12T12:04:54.544Z,241.88
2022-11-12T12:05:54.464Z,225.00
2022-11-12T12:06:54.441Z,230.63
2022-11-12T12:07:54.306Z,208.13
2022-11-12T12:08:54.377Z,196.88
2022-11-12T12:09:54.143Z,202.50
2022-11-12T12:11:07.705Z,208.13
2022-11-12T12:11:53.984Z,225.00
2022-11-12T12:12:54.021Z,225.00
2022-11-12T12:13:53.825Z,230.63
2022-11-12T12:14:53.744Z,230.63
2022-11-12T12:15:53.666Z,236.25
2022-11-12T12:16:53.586Z,241.88
2022-11-12T12:17:53.509Z,247.50
2022-11-12T12:18:53.426Z,253.13
2022-11-12T12:19:53.348Z,253.13
2022-11-12T12:20:53.268Z,264.38
2022-11-12T12:21:53.191Z,275.63
2022-11-12T12:22:53.112Z,270.00
2022-11-12T12:23:53.033Z,270.00
2022-11-12T12:24:52.957Z,270.00
2022-11-12T12:25:57.407Z,270.00
2022-11-12T12:26:52.798Z,264.38
2022-11-12T12:27:52.725Z,253.13
2022-11-12T12:28:52.752Z,241.88
2022-11-12T12:29:52.563Z,241.88
2022-11-12T12:30:52.495Z,241.88
2022-11-12T12:31:52.406Z,247.50
2022-11-12T12:32:52.327Z,253.13
2022-11-12T12:33:52.252Z,247.50
2022-11-12T12:34:52.169Z,258.75
2022-11-12T12:35:52.092Z,264.38
2022-11-12T12:36:52.014Z,264.38
2022-11-12T12:37:51.936Z,258.75
2022-11-12T12:38:51.892Z,253.13
2022-11-12T12:39:51.792Z,258.75
2022-11-12T12:40:51.738Z,253.13
2022-11-12T12:41:51.655Z,241.88
2022-11-12T12:42:51.545Z,241.88
2022-11-12T12:43:51.504Z,258.75
2022-11-12T12:44:51.539Z,264.38
2022-11-12T12:45:51.310Z,264.38
2022-11-12T12:46:51.234Z,270.00
2022-11-12T12:47:51.155Z,258.75
2022-11-12T12:48:51.085Z,258.75
2022-11-12T12:49:51.003Z,247.50
2022-11-12T12:50:50.923Z,247.50
2022-11-12T12:51:55.593Z,253.13
2022-11-12T12:52:50.762Z,236.25
2022-11-12T12:53:50.687Z,247.50
2022-11-12T12:54:50.606Z,258.75
2022-11-12T12:55:50.529Z,258.75
2022-11-12T12:56:50.450Z,258.75
2022-11-12T12:57:50.375Z,247.50
2022-11-12T12:58:50.296Z,241.88
2022-11-12T12:59:50.219Z,253.13
2022-11-12T13:00:50.299Z,264.38
2022-11-12T13:01:50.062Z,236.25
2022-11-12T13:02:49.984Z,219.38
2022-11-12T13:03:49.906Z,213.75
2022-11-12T13:04:49.826Z,208.13
2022-11-12T13:05:49.749Z,202.50
2022-11-12T13:06:49.732Z,196.88
2022-11-12T13:07:49.597Z,213.75
2022-11-12T13:08:49.514Z,219.38
2022-11-12T13:09:49.438Z,219.38
2022-11-12T13:10:49.357Z,219.38
2022-11-12T13:11:49.281Z,219.38
2022-11-12T13:12:49.202Z,230.63
2022-11-12T13:13:49.125Z,225.00
2022-11-12T13:14:49.143Z,213.75
2022-11-12T13:15:48.968Z,208.13
2022-11-12T13:16:48.997Z,202.50
2022-11-12T13:17:48.814Z,208.13
2022-11-12T13:18:48.733Z,213.75
2022-11-12T13:19:48.663Z,219.38
2022-11-12T13:20:48.577Z,225.00
2022-11-12T13:21:48.500Z,230.63
2022-11-12T13:22:48.418Z,241.88
2022-11-12T13:23:48.344Z,247.50
2022-11-12T13:24:48.266Z,241.88
2022-11-12T13:25:48.191Z,241.88
2022-11-12T13:26:48.105Z,236.25
2022-11-12T13:27:48.029Z,247.50
2022-11-12T13:28:47.952Z,241.88
2022-11-12T13:29:47.899Z,225.00
2022-11-12T13:30:47.794Z,236.25
2022-11-12T13:31:47.718Z,225.00
2022-11-12T13:32:47.758Z,225.00
2022-11-12T13:33:47.562Z,225.00
2022-11-12T13:34:47.482Z,225.00
2022-11-12T13:35:47.404Z,236.25
2022-11-12T13:36:47.325Z,230.63
2022-11-12T13:37:47.249Z,236.25
2022-11-12T13:38:47.170Z,225.00
2022-11-12T13:39:47.094Z,219.38
2022-11-12T13:40:47.015Z,225.00
2022-11-12T13:41:46.937Z,236.25
2022-11-12T13:42:46.858Z,247.50
2022-11-12T13:43:46.782Z,253.13
2022-11-12T13:44:46.702Z,258.75
2022-11-12T13:45:46.628Z,253.13
2022-11-12T13:46:46.646Z,253.13
2022-11-12T13:47:46.470Z,253.13
2022-11-12T13:48:46.502Z,253.13
2022-11-12T13:49:46.314Z,253.13
2022-11-12T13:50:46.235Z,247.50
2022-11-12T13:51:46.258Z,247.50
2022-11-12T13:52:46.085Z,247.50
2022-11-12T13:53:46.002Z,241.88
2022-11-12T13:54:45.922Z,241.88
2022-11-12T13:55:45.845Z,241.88
2022-11-12T13:56:45.766Z,236.25
2022-11-12T13:57:45.691Z,236.25
2022-11-12T13:58:45.610Z,236.25
2022-11-12T13:59:45.534Z,230.63
2022-11-12T14:00:45.475Z,230.63
2022-11-12T14:01:45.391Z,225.00
2022-11-12T14:02:45.300Z,219.38
2022-11-12T14:03:45.225Z,219.38
2022-11-12T14:04:45.263Z,213.75
2022-11-12T14:05:45.133Z,213.75
2022-11-12T14:06:45.097Z,202.50
2022-11-12T14:07:44.911Z,202.50
2022-11-12T14:08:44.833Z,196.88
2022-11-12T14:09:44.755Z,191.25
2022-11-12T14:10:46.259Z,185.63
2022-11-12T14:11:44.599Z,185.63
2022-11-12T14:12:44.520Z,191.25
2022-11-12T14:13:44.495Z,191.25
2022-11-12T14:14:44.364Z,185.63
2022-11-12T14:15:44.288Z,185.63
2022-11-12T14:16:44.209Z,185.63
2022-11-12T14:17:44.133Z,185.63
2022-11-12T14:18:44.053Z,180.00
2022-11-12T14:19:43.975Z,174.38
2022-11-12T14:20:44.013Z,174.38
2022-11-12T14:21:43.819Z,168.75
2022-11-12T14:22:43.740Z,168.75
2022-11-12T14:23:43.661Z,163.13
2022-11-12T14:24:43.585Z,157.50
2022-11-12T14:25:43.508Z,157.50
2022-11-12T14:26:43.426Z,151.88
2022-11-12T14:27:43.349Z,151.88
2022-11-12T14:28:43.276Z,146.25
2022-11-12T14:29:43.897Z,140.63
2022-11-12T14:30:43.117Z,140.63
2022-11-12T14:31:43.039Z,135.00
2022-11-12T14:32:42.962Z,135.00
2022-11-12T14:33:42.882Z,129.38
2022-11-12T14:34:42.804Z,129.38
2022-11-12T14:35:42.727Z,129.38
2022-11-12T14:36:42.764Z,123.75
2022-11-12T14:37:43.902Z,123.75
2022-11-12T14:38:42.490Z,123.75
2022-11-12T14:39:42.414Z,123.75
2022-11-12T14:40:42.335Z,118.13
2022-11-12T14:41:42.258Z,118.13
2022-11-12T14:42:42.182Z,112.50
2022-11-12T14:43:42.101Z,112.50
2022-11-12T14:44:42.027Z,106.88
2022-11-12T14:45:41.947Z,106.88
2022-11-12T14:46:41.863Z,101.25
2022-11-12T14:47:41.792Z,101.25
2022-11-12T14:48:41.709Z,101.25
2022-11-12T14:49:44.403Z,95.63
2022-11-12T14:50:45.288Z,90.00
2022-11-12T14:51:41.480Z,84.38
2022-11-12T14:52:41.509Z,78.75
2022-11-12T14:53:41.317Z,73.13
2022-11-12T14:54:41.238Z,73.13
2022-11-12T14:55:41.161Z,67.50
2022-11-12T14:56:41.080Z,61.88
2022-11-12T14:57:41.009Z,61.88
2022-11-12T14:58:40.923Z,61.88
2022-11-12T14:59:40.848Z,61.88
2022-11-12T15:00:40.804Z,61.88
2022-11-12T15:02:55.768Z,56.25
2022-11-12T15:03:40.528Z,50.63
2022-11-12T15:04:40.449Z,50.63
2022-11-12T15:05:40.370Z,45.00
2022-11-12T15:06:40.353Z,39.38
2022-11-12T15:07:40.214Z,39.38
2022-11-12T15:08:40.247Z,33.75
2022-11-12T15:09:40.063Z,33.75
2022-11-12T15:10:39.978Z,33.75
2022-11-12T15:11:39.898Z,28.13
2022-11-12T15:12:39.816Z,28.13
2022-11-12T15:13:39.742Z,28.13
2022-11-12T15:14:39.657Z,22.50
2022-11-12T15:15:39.586Z,22.50
2022-11-12T15:16:39.502Z,22.50
2022-11-12T15:17:39.423Z,22.50
2022-11-12T15:18:39.341Z,16.88
2022-11-12T15:19:39.265Z,16.88
2022-11-12T15:20:39.184Z,16.88
2022-11-12T15:21:39.110Z,16.88
2022-11-12T15:22:39.025Z,16.88
2022-11-12T15:23:38.946Z,16.88
2022-11-12T15:24:39.068Z,11.25
2022-11-12T15:25:38.790Z,11.25
2022-11-12T15:26:38.706Z,11.25
2022-11-12T15:27:38.630Z,11.25
2022-11-12T15:28:38.549Z,11.25
2022-11-12T15:29:38.474Z,11.25
2022-11-12T15:30:38.389Z,5.63
2022-11-12T15:31:38.313Z,5.63
2022-11-12T15:32:38.231Z,5.63
2022-11-12T15:33:38.154Z,5.63
2022-11-12T15:34:38.071Z,5.63
2022-11-12T15:35:38.003Z,5.63
2022-11-12T15:36:37.913Z,5.63
2022-11-12T15:37:37.836Z,5.63
2022-11-12T15:38:37.757Z,0.00
2022-11-12T15:39:37.677Z,0.00
2022-11-12T15:40:37.913Z,0.00
2022-11-12T15:41:37.523Z,0.00
2022-11-12T15:42:37.435Z,0.00
2022-11-12T15:43:37.358Z,0.00
2022-11-12T15:44:37.279Z,0.00
2022-11-12T15:45:37.200Z,0.00
2022-11-12T15:46:37.117Z,0.00
2022-11-12T15:47:37.040Z,0.00
2022-11-12T15:48:36.957Z,0.00
2022-11-12T15:49:36.880Z,0.00
2022-11-12T15:50:36.802Z,0.00
2022-11-12T15:51:36.721Z,0.00
2022-11-12T15:52:36.644Z,0.00
2022-11-12T15:53:36.560Z,0.00
2022-11-12T15:54:40.865Z,0.00
2022-11-12T15:55:36.398Z,0.00
2022-11-12T15:56:36.437Z,0.00
2022-11-12T15:57:36.238Z,0.00
2022-11-12T15:58:36.159Z,0.00
2022-11-12T15:59:36.081Z,0.00
2022-11-12T16:00:36.123Z,0.00
2022-11-12T16:01:35.923Z,0.00
2022-11-12T16:02:35.850Z,0.00
2022-11-12T16:03:35.760Z,0.00
2022-11-12T16:04:35.682Z,0.00
2022-11-12T16:05:35.600Z,0.00
2022-11-12T16:06:35.587Z,0.00
2022-11-12T16:07:35.443Z,0.00
2022-11-12T16:08:35.362Z,0.00
2022-11-12T16:09:35.280Z,0.00
2022-11-12T16:10:35.202Z,0.00
2022-11-12T16:11:35.118Z,0.00
2022-11-12T16:12:35.159Z,0.00
2022-11-12T16:13:34.963Z,0.00
2022-11-12T16:14:34.884Z,0.00
2022-11-12T16:15:34.805Z,0.00
2022-11-12T16:16:34.722Z,0.00
2022-11-12T16:17:34.639Z,0.00
2022-11-12T16:18:34.567Z,0.00
2022-11-12T16:19:34.479Z,0.00
2022-11-12T16:20:34.403Z,0.00
2022-11-12T16:21:34.322Z,0.00
2022-11-12T16:22:34.243Z,0.00
2022-11-12T16:23:34.159Z,0.00
2022-11-12T16:24:34.085Z,0.00
2022-11-12T16:25:34.001Z,0.00
2022-11-12T16:26:33.921Z,0.00
2022-11-12T16:27:33.843Z,0.00
2022-11-12T16:28:33.874Z,0.00
2022-11-12T16:29:33.683Z,0.00
2022-11-12T16:30:33.603Z,0.00
2022-11-12T16:31:33.522Z,0.00
2022-11-12T16:32:33.440Z,0.00
2022-11-12T16:33:33.361Z,0.00
2022-11-12T16:34:33.434Z,0.00
2022-11-12T16:35:33.200Z,0.00
2022-11-12T16:36:33.122Z,0.00
2022-11-12T16:37:33.042Z,0.00
2022-11-12T16:38:32.958Z,0.00
2022-11-12T16:39:32.878Z,0.00
2022-11-12T16:40:32.799Z,0.00
2022-11-12T16:41:32.719Z,0.00
2022-11-12T16:42:32.648Z,0.00
2022-11-12T16:43:32.558Z,0.00
2022-11-12T16:44:32.499Z,0.00
2022-11-12T16:45:32.398Z,0.00
2022-11-12T16:46:32.321Z,0.00
2022-11-12T16:47:32.237Z,0.00
2022-11-12T16:48:32.158Z,0.00
2022-11-12T16:49:37.334Z,0.00
2022-11-12T16:50:31.998Z,0.00
2022-11-12T16:51:31.917Z,0.00
2022-11-12T16:52:31.840Z,0.00
2022-11-12T16:53:31.756Z,0.00
2022-11-12T16:54:31.676Z,0.00
2022-11-12T16:55:31.596Z,0.00
2022-11-12T16:56:31.519Z,0.00
2022-11-12T16:57:31.433Z,0.00
2022-11-12T16:58:31.358Z,0.00
2022-11-12T16:59:31.274Z,0.00
2022-11-12T17:00:31.306Z,0.00
2022-11-12T17:01:31.223Z,0.00
2022-11-12T17:02:31.036Z,0.00
2022-11-12T17:03:31.025Z,0.00
2022-11-12T17:04:30.874Z,0.00
2022-11-12T17:05:30.797Z,0.00
2022-11-12T17:06:30.712Z,0.00
2022-11-12T17:07:30.835Z,0.00
2022-11-12T17:08:33.931Z,0.00
2022-11-12T17:09:30.470Z,0.00
2022-11-12T17:10:30.490Z,0.00
2022-11-12T17:11:30.309Z,0.00
2022-11-12T17:12:30.233Z,0.00
2022-11-12T17:13:30.470Z,0.00
2022-11-12T17:14:30.069Z,0.00
2022-11-12T17:15:30.191Z,0.00
2022-11-12T17:16:30.031Z,0.00
2022-11-12T17:17:29.828Z,0.00
2022-11-12T17:18:29.749Z,0.00
2022-11-12T17:19:29.670Z,0.00
2022-11-12T17:20:29.588Z,0.00
2022-11-12T17:21:29.509Z,0.00
2022-11-12T17:22:29.425Z,0.00
2022-11-12T17:23:29.706Z,0.00
2022-11-12T17:24:29.267Z,0.00
2022-11-12T17:25:29.187Z,0.00
2022-11-12T17:26:29.107Z,0.00
2022-11-12T17:27:29.024Z,0.00
2022-11-12T17:28:28.946Z,0.00
2022-11-12T17:29:28.864Z,0.00
2022-11-12T17:30:28.785Z,0.00
2022-11-12T17:31:28.701Z,0.00
2022-11-12T17:32:28.738Z,0.00
2022-11-12T17:33:28.934Z,0.00
2022-11-12T17:34:28.460Z,0.00
2022-11-12T17:35:28.378Z,0.00
2022-11-12T17:36:28.300Z,0.00
2022-11-12T17:37:28.219Z,0.00
2022-11-12T17:38:28.137Z,0.00
2022-11-12T17:39:28.057Z,0.00
2022-11-12T17:40:27.977Z,0.00
2022-11-12T17:41:27.896Z,0.00
2022-11-12T17:42:27.815Z,0.00
2022-11-12T17:43:28.021Z,0.00
2022-11-12T17:44:27.655Z,0.00
2022-11-12T17:45:27.575Z,0.00
2022-11-12T17:46:27.490Z,0.00
2022-11-12T17:47:27.412Z,0.00
2022-11-12T17:48:27.446Z,0.00
2022-11-12T17:49:27.248Z,0.00
2022-11-12T17:50:27.170Z,0.00
2022-11-12T17:51:27.088Z,0.00
2022-11-12T17:52:27.008Z,0.00
2022-11-12T17:53:27.342Z,0.00
2022-11-12T17:54:26.845Z,0.00
2022-11-12T17:55:26.764Z,0.00
2022-11-12T17:56:26.694Z,0.00
2022-11-12T17:57:26.604Z,0.00
2022-11-12T17:58:26.524Z,0.00
2022-11-12T17:59:26.439Z,0.00
2022-11-12T18:00:26.361Z,0.00
2022-11-12T18:01:26.300Z,0.00
2022-11-12T18:02:26.402Z,0.00
2022-11-12T18:03:26.593Z,0.00
2022-11-12T18:04:30.610Z,0.00
2022-11-12T18:05:26.005Z,0.00
2022-11-12T18:06:25.875Z,0.00
2022-11-12T18:07:25.792Z,0.00
2022-11-12T18:08:25.711Z,0.00
2022-11-12T18:09:25.632Z,0.00
2022-11-12T18:10:25.550Z,0.00
2022-11-12T18:11:25.468Z,0.00
2022-11-12T18:12:25.435Z,0.00
2022-11-12T18:13:25.699Z,0.00
2022-11-12T18:14:25.224Z,0.00
2022-11-12T18:15:25.141Z,0.00
2022-11-12T18:16:25.062Z,0.00
2022-11-12T18:17:24.979Z,0.00
2022-11-12T18:18:24.900Z,0.00
2022-11-12T18:19:24.816Z,0.00
2022-11-12T18:20:24.851Z,0.00
2022-11-12T18:21:24.653Z,0.00
2022-11-12T18:22:24.573Z,0.00
2022-11-12T18:23:24.700Z,0.00
2022-11-12T18:24:24.409Z,0.00
2022-11-12T18:25:24.328Z,0.00
2022-11-12T18:26:24.248Z,0.00
2022-11-12T18:27:24.164Z,0.00
2022-11-12T18:28:24.085Z,0.00
2022-11-12T18:29:24.004Z,0.00
2022-11-12T18:30:24.121Z,0.00
2022-11-12T18:31:23.842Z,0.00
2022-11-12T18:32:23.761Z,0.00
2022-11-12T18:33:23.679Z,0.00
2022-11-12T18:34:23.595Z,0.00
2022-11-12T18:35:28.550Z,0.00
2022-11-12T18:36:23.552Z,0.00
2022-11-12T18:37:23.351Z,0.00
2022-11-12T18:38:23.273Z,0.00
2022-11-12T18:39:23.190Z,0.00
2022-11-12T18:40:23.109Z,0.00
2022-11-12T18:41:23.027Z,0.00
2022-11-12T18:42:22.946Z,0.00
2022-11-12T18:43:22.863Z,0.00
2022-11-12T18:44:26.014Z,0.00
2022-11-12T18:45:22.702Z,0.00
2022-11-12T18:46:22.620Z,0.00
2022-11-12T18:47:22.537Z,0.00
2022-11-12T18:48:22.458Z,0.00
2022-11-12T18:49:22.375Z,0.00
2022-11-12T18:50:22.293Z,0.00
2022-11-12T18:51:22.210Z,0.00
2022-11-12T18:52:22.244Z,0.00
2022-11-12T18:53:22.047Z,0.00
2022-11-12T18:54:21.967Z,0.00
2022-11-12T18:55:21.882Z,0.00
2022-11-12T18:56:21.806Z,0.00
2022-11-12T18:57:21.724Z,0.00
2022-11-12T18:58:21.642Z,0.00
2022-11-12T18:59:21.556Z,0.00
2022-11-12T19:00:21.476Z,0.00
2022-11-12T19:01:21.480Z,0.00
2022-11-12T19:02:21.310Z,0.00
2022-11-12T19:03:21.333Z,0.00
2022-11-12T19:04:21.152Z,0.00
2022-11-12T19:05:21.065Z,0.00
2022-11-12T19:06:20.987Z,0.00
2022-11-12T19:07:20.984Z,0.00
2022-11-12T19:08:21.030Z,0.00
2022-11-12T19:09:20.744Z,0.00
2022-11-12T19:10:20.655Z,0.00
2022-11-12T19:11:20.772Z,0.00
2022-11-12T19:12:20.492Z,0.00
2022-11-12T19:13:20.411Z,0.00
2022-11-12T19:14:20.354Z,0.00
2022-11-12T19:15:25.550Z,0.00
2022-11-12T19:16:20.191Z,0.00
2022-11-12T19:17:20.087Z,0.00
2022-11-12T19:18:19.999Z,0.00
2022-11-12T19:19:19.918Z,0.00
2022-11-12T19:20:19.840Z,0.00
2022-11-12T19:21:19.752Z,0.00
2022-11-12T19:22:19.672Z,0.00
2022-11-12T19:23:19.588Z,0.00
2022-11-12T19:24:19.620Z,0.00
2022-11-12T19:25:19.438Z,0.00
2022-11-12T19:26:19.340Z,0.00
2022-11-12T19:27:19.258Z,0.00
2022-11-12T19:28:19.178Z,0.00
2022-11-12T19:29:19.102Z,0.00
2022-11-12T19:30:19.024Z,0.00
2022-11-12T19:31:18.929Z,0.00
2022-11-12T19:32:18.847Z,0.00
2022-11-12T19:33:18.764Z,0.00
2022-11-12T19:34:18.683Z,0.00
2022-11-12T19:35:18.597Z,0.00
2022-11-12T19:36:18.519Z,0.00
2022-11-12T19:37:33.007Z,0.00
2022-11-12T19:38:18.353Z,0.00
2022-11-12T19:39:18.270Z,0.00
2022-11-12T19:40:18.305Z,0.00
2022-11-12T19:41:20.089Z,0.00
2022-11-12T19:42:18.027Z,0.00
2022-11-12T19:43:17.939Z,0.00
2022-11-12T19:44:17.861Z,0.00
2022-11-12T19:45:17.777Z,0.00
2022-11-12T19:46:17.693Z,0.00
2022-11-12T19:47:17.659Z,0.00
2022-11-12T19:48:17.529Z,0.00
2022-11-12T19:49:17.446Z,0.00
2022-11-12T19:50:22.150Z,0.00
2022-11-12T19:51:17.280Z,0.00
2022-11-12T19:52:17.199Z,0.00
2022-11-12T19:53:17.118Z,0.00
2022-11-12T19:54:17.084Z,0.00
2022-11-12T19:55:16.953Z,0.00
2022-11-12T19:56:17.225Z,0.00
2022-11-12T19:57:16.785Z,0.00
2022-11-12T19:58:16.705Z,0.00
2022-11-12T19:59:16.622Z,0.00
2022-11-12T20:00:16.539Z,0.00
2022-11-12T20:01:16.545Z,0.00
2022-11-12T20:02:16.373Z,0.00
2022-11-12T20:03:16.292Z,0.00
2022-11-12T20:04:20.185Z,0.00
2022-11-12T20:05:16.127Z,0.00
2022-11-12T20:06:16.046Z,0.00
2022-11-12T20:07:16.007Z,0.00
2022-11-12T20:08:15.882Z,0.00
2022-11-12T20:09:15.796Z,0.00
2022-11-12T20:10:15.762Z,0.00
2022-11-12T20:11:15.631Z,0.00
2022-11-12T20:12:15.659Z,0.00
2022-11-12T20:13:15.466Z,0.00
2022-11-12T20:14:15.381Z,0.00
2022-11-12T20:15:15.298Z,0.00
2022-11-12T20:16:16.738Z,0.00
2022-11-12T20:17:15.135Z,0.00
2022-11-12T20:18:15.052Z,0.00
2022-11-12T20:19:14.971Z,0.00
2022-11-12T20:20:14.886Z,0.00
2022-11-12T20:21:14.803Z,0.00
2022-11-12T20:22:14.723Z,0.00
2022-11-12T20:23:14.642Z,0.00
2022-11-12T20:24:14.556Z,0.00
2022-11-12T20:25:14.672Z,0.00
2022-11-12T20:26:14.391Z,0.00
2022-11-12T20:27:14.309Z,0.00
2022-11-12T20:28:14.337Z,0.00
2022-11-12T20:29:14.146Z,0.00
2022-11-12T20:30:14.059Z,0.00
2022-11-12T20:31:13.975Z,0.00
2022-11-12T20:32:13.890Z,0.00
2022-11-12T20:33:13.810Z,0.00
2022-11-12T20:34:13.725Z,0.00
2022-11-12T20:35:19.280Z,0.00
2022-11-12T20:36:13.558Z,0.00
2022-11-12T20:37:13.476Z,0.00
2022-11-12T20:38:13.391Z,0.00
2022-11-12T20:39:13.310Z,0.00
2022-11-12T20:40:13.428Z,0.00
2022-11-12T20:41:13.144Z,0.00
2022-11-12T20:42:13.057Z,0.00
2022-11-12T20:43:12.976Z,0.00
2022-11-12T20:44:13.007Z,0.00
2022-11-12T20:45:12.809Z,0.00
2022-11-12T20:46:12.728Z,0.00
2022-11-12T20:47:12.647Z,0.00
2022-11-12T20:48:12.557Z,0.00
2022-11-12T20:49:12.476Z,0.00
2022-11-12T20:50:12.392Z,0.00
2022-11-12T20:51:26.854Z,0.00
2022-11-12T20:52:12.224Z,0.00
2022-11-12T20:53:12.142Z,0.00
2022-11-12T20:54:12.057Z,0.00
2022-11-12T20:55:11.976Z,0.00
2022-11-12T20:56:11.890Z,0.00
2022-11-12T20:57:11.806Z,0.00
2022-11-12T20:58:11.721Z,0.00
2022-11-12T20:59:11.639Z,0.00
2022-11-12T21:00:13.913Z,0.00
2022-11-12T21:01:11.539Z,0.00
2022-11-12T21:02:11.386Z,0.00
2022-11-12T21:03:11.304Z,0.00
2022-11-12T21:04:11.221Z,0.00
2022-11-12T21:05:11.135Z,0.00
2022-11-12T21:06:11.050Z,0.00
2022-11-12T21:07:11.025Z,0.00
2022-11-12T21:08:10.883Z,0.00
2022-11-12T21:09:10.802Z,0.00
2022-11-12T21:10:10.716Z,0.00
2022-11-12T21:11:10.633Z,0.00
2022-11-12T21:12:10.550Z,0.00
2022-11-12T21:13:10.470Z,0.00
2022-11-12T21:14:10.381Z,0.00
2022-11-12T21:15:10.297Z,0.00
2022-11-12T21:16:10.578Z,0.00
2022-11-12T21:17:10.132Z,0.00
2022-11-12T21:18:10.046Z,0.00
2022-11-12T21:19:09.961Z,0.00
2022-11-12T21:20:10.130Z,0.00
2022-11-12T21:21:09.846Z,0.00
2022-11-12T21:22:09.709Z,0.00
2022-11-12T21:23:09.626Z,0.00
2022-11-12T21:24:09.542Z,0.00
2022-11-12T21:25:09.462Z,0.00
2022-11-12T21:26:09.377Z,0.00
2022-11-12T21:27:09.289Z,0.00
2022-11-12T21:28:09.207Z,0.00
2022-11-12T21:29:09.124Z,0.00
2022-11-12T21:30:09.040Z,0.00
2022-11-12T21:31:08.954Z,0.00
2022-11-12T21:32:08.987Z,0.00
2022-11-12T21:33:08.787Z,0.00
2022-11-12T21:34:08.700Z,0.00
2022-11-12T21:35:08.619Z,0.00
2022-11-12T21:36:13.181Z,0.00
2022-11-12T21:37:08.452Z,0.00
2022-11-12T21:38:08.366Z,0.00
2022-11-12T21:39:08.282Z,0.00
2022-11-12T21:40:08.198Z,0.00
2022-11-12T21:41:08.118Z,0.00
2022-11-12T21:42:08.030Z,0.00
2022-11-12T21:43:07.957Z,0.00
2022-11-12T21:44:07.862Z,0.00
2022-11-12T21:45:07.780Z,0.00
2022-11-12T21:46:07.695Z,0.00
2022-11-12T21:47:07.612Z,0.00
2022-11-12T21:48:07.642Z,0.00
2022-11-12T21:49:07.448Z,0.00
2022-11-12T21:50:07.358Z,0.00
2022-11-12T21:51:07.275Z,0.00
2022-11-12T21:52:07.193Z,0.00
2022-11-12T21:53:07.108Z,0.00
2022-11-12T21:54:07.022Z,0.00
2022-11-12T21:55:06.941Z,0.00
2022-11-12T21:56:06.854Z,0.00
2022-11-12T21:57:06.771Z,0.00
2022-11-12T21:58:06.685Z,0.00
2022-11-12T21:59:06.602Z,0.00
2022-11-12T22:00:34.590Z,0.00
2022-11-12T22:01:06.434Z,0.00
2022-11-12T22:02:06.387Z,0.00
2022-11-12T22:03:06.261Z,0.00
2022-11-12T22:04:06.294Z,0.00
2022-11-12T22:05:06.096Z,0.00
2022-11-12T22:06:06.010Z,0.00
2022-11-12T22:07:06.063Z,0.00
2022-11-12T22:08:05.839Z,0.00
2022-11-12T22:09:05.917Z,0.00
2022-11-12T22:10:05.670Z,0.00
2022-11-12T22:11:05.586Z,0.00
2022-11-12T22:12:05.500Z,0.00
2022-11-12T22:13:25.900Z,0.00
2022-11-12T22:14:05.331Z,0.00
2022-11-12T22:15:05.248Z,0.00
2022-11-12T22:16:05.166Z,0.00
2022-11-12T22:17:05.080Z,0.00
2022-11-12T22:18:04.994Z,0.00
2022-11-12T22:19:04.912Z,0.00
2022-11-12T22:20:04.940Z,0.00
2022-11-12T22:21:04.742Z,0.00
2022-11-12T22:22:04.653Z,0.00
2022-11-12T22:23:04.567Z,0.00
2022-11-12T22:24:04.582Z,0.00
2022-11-12T22:25:04.401Z,0.00
2022-11-12T22:26:04.313Z,0.00
2022-11-12T22:27:05.705Z,0.00
2022-11-12T22:28:04.145Z,0.00
2022-11-12T22:29:04.311Z,0.00
2022-11-12T22:30:03.981Z,0.00
2022-11-12T22:31:03.893Z,0.00
2022-11-12T22:32:03.853Z,0.00
2022-11-12T22:33:03.721Z,0.00
2022-11-12T22:34:03.635Z,0.00
2022-11-12T22:35:03.552Z,0.00
2022-11-12T22:36:03.580Z,0.00
2022-11-12T22:37:03.385Z,0.00
2022-11-12T22:38:03.302Z,0.00
2022-11-12T22:39:03.214Z,0.00
2022-11-12T22:40:03.132Z,0.00
2022-11-12T22:41:03.046Z,0.00
2022-11-12T22:42:02.955Z,0.00
2022-11-12T22:43:02.885Z,0.00
2022-11-12T22:44:02.786Z,0.00
2022-11-12T22:45:02.704Z,0.00
2022-11-12T22:46:02.616Z,0.00
2022-11-12T22:47:02.535Z,0.00
2022-11-12T22:48:02.445Z,0.00
2022-11-12T22:49:02.362Z,0.00
2022-11-12T22:50:02.291Z,0.00
2022-11-12T22:51:02.246Z,0.00
2022-11-12T22:52:02.216Z,0.00
2022-11-12T22:53:02.022Z,0.00
2022-11-12T22:54:01.934Z,0.00
2022-11-12T22:55:01.851Z,0.00
2022-11-12T22:56:01.764Z,0.00
2022-11-12T22:57:01.680Z,0.00
2022-11-12T22:58:01.592Z,0.00
2022-11-12T22:59:01.509Z,0.00
2022-11-12T23:00:01.422Z,0.00
2022-11-12T23:01:01.394Z,0.00
2022-11-12T23:02:01.252Z,0.00
2022-11-12T23:03:01.167Z,0.00
2022-11-12T23:04:01.082Z,0.00
2022-11-12T23:05:00.997Z,0.00
2022-11-12T23:06:00.916Z,0.00
2022-11-12T23:07:00.897Z,0.00
2022-11-12T23:08:00.860Z,0.00
2022-11-12T23:09:00.659Z,0.00
2022-11-12T23:10:00.618Z,0.00
2022-11-12T23:11:00.486Z,0.00
2022-11-12T23:12:00.400Z,0.00
2022-11-12T23:13:00.322Z,0.00
2022-11-12T23:14:00.235Z,0.00
2022-11-12T23:15:00.144Z,0.00
2022-11-12T23:16:00.064Z,0.00
2022-11-12T23:16:59.974Z,0.00
2022-11-12T23:17:59.889Z,0.00
2022-11-12T23:18:59.810Z,0.00
2022-11-12T23:19:59.717Z,0.00
2022-11-12T23:20:59.630Z,0.00
2022-11-12T23:22:01.865Z,0.00
2022-11-12T23:22:59.459Z,0.00
2022-11-12T23:23:59.489Z,0.00
2022-11-12T23:24:59.290Z,0.00
2022-11-12T23:25:59.203Z,0.00
2022-11-12T23:26:59.145Z,0.00
2022-11-12T23:27:59.032Z,0.00
2022-11-12T23:28:58.946Z,0.00
2022-11-12T23:29:58.863Z,0.00
2022-11-12T23:30:58.779Z,0.00
2022-11-12T23:31:58.688Z,0.00
2022-11-12T23:32:58.603Z,0.00
2022-11-12T23:33:58.518Z,0.00
2022-11-12T23:34:58.435Z,0.00
2022-11-12T23:35:58.349Z,0.00
2022-11-12T23:36:58.263Z,0.00
2022-11-12T23:37:58.426Z,0.00
2022-11-12T23:38:58.139Z,0.00
2022-11-12T23:39:58.115Z,0.00
2022-11-12T23:40:57.921Z,0.00
2022-11-12T23:41:57.831Z,0.00
2022-11-12T23:42:57.750Z,0.00
2022-11-12T23:43:57.658Z,0.00
2022-11-12T23:44:57.677Z,0.00
2022-11-12T23:45:57.490Z,0.00
2022-11-12T23:46:57.403Z,0.00
2022-11-12T23:47:57.322Z,0.00
2022-11-12T23:48:57.231Z,0.00
2022-11-12T23:49:57.146Z,0.00
2022-11-12T23:50:57.165Z,0.00
2022-11-12T23:51:56.979Z,0.00
2022-11-12T23:52:56.888Z,0.00
2022-11-12T23:53:56.903Z,0.00
2022-11-12T23:54:56.718Z,0.00
2022-11-12T23:55:56.745Z,0.00
2022-11-12T23:56:56.545Z,0.00
2022-11-12T23:57:56.558Z,0.00
2022-11-12T23:58:56.373Z,0.00
2022-11-12T23:59:56.287Z,0.00
